Time;durP1;ratioP1;P1;durP2;ratioP2;P2;SDS_P1;SDS_P2;PMS_P1;PMS_P2;Temp;Humidity;BMP_temperature;BMP_pressure;BME280_temperature;BME280_humidity;BME280_pressure;Samples;Min_cycle;Max_cycle;Signal;HPM_P1;HPM_P2
2021/07/24 00:00:14;;;;;;;;;;;;;;;23.54;63.20;98713.22;4942265;28;20380;-65
2021/07/24 00:02:40;;;;;;;;;;;;;;;23.68;65.22;98707.53;4943040;28;20300;-65
2021/07/24 00:05:05;;;;;;;;;;;;;;;23.61;64.53;98709.06;4941636;28;19915;-65
2021/07/24 00:07:31;;;;;;;;;;;;;;;23.51;66.57;98710.84;4949432;28;19922;-65
2021/07/24 00:09:56;;;;;;;;;;;;;;;23.59;65.49;98703.13;4949473;28;20347;-64
2021/07/24 00:12:21;;;;;;;;;;;;;;;23.56;66.28;98698.13;4942438;28;19918;-65
2021/07/24 00:14:46;;;;;;;;;;;;;;;23.36;64.68;98697.31;4950468;28;19924;-65
2021/07/24 00:17:12;;;;;;;;;;;;;;;22.90;66.09;98699.56;4950479;28;19981;-65
2021/07/24 00:19:37;;;;;;;;;;;;;;;22.29;68.07;98702.25;4947542;28;19925;-65
2021/07/24 00:22:02;;;;;;;;;;;;;;;21.85;68.37;98694.53;4942342;28;19914;-65
2021/07/24 00:24:28;;;;;;;;;;;;;;;21.97;72.29;98695.28;4947523;28;19926;-65
2021/07/24 00:26:53;;;;;;;;;;;;;;;21.65;72.79;98698.78;4948003;29;20262;-65
2021/07/24 00:29:19;;;;;;;;;;;;;;;22.45;72.48;98692.09;4946420;28;20197;-65
2021/07/24 00:31:44;;;;;;;;;;;;;;;22.94;68.64;98684.34;4947979;28;20020;-64
2021/07/24 00:34:09;;;;;;;;;;;;;;;23.02;68.16;98681.09;4947110;28;19977;-65
2021/07/24 00:36:35;;;;;;;;;;;;;;;22.98;68.90;98678.69;4937615;28;19923;-66
2021/07/24 00:39:00;;;;;;;;;;;;;;;23.00;66.47;98669.91;4946207;28;19920;-66
2021/07/24 00:41:36;;;;;;;;;;;;;;;23.05;66.58;98672.94;4949630;28;19937;-66
2021/07/24 00:44:01;;;;;;;;;;;;;;;23.00;65.82;98675.16;4944436;28;19960;-65
2021/07/24 00:46:29;;;;;;;;;;;;;;;22.87;67.16;98676.19;4939393;28;20259;-63
2021/07/24 00:48:54;;;;;;;;;;;;;;;22.71;67.75;98675.88;4936176;28;20403;-63
2021/07/24 00:51:31;;;;;;;;;;;;;;;22.76;63.28;98673.66;4941117;29;19914;-65
2021/07/24 00:53:57;;;;;;;;;;;;;;;22.70;66.89;98666.34;4942566;28;20504;-64
2021/07/24 00:56:24;;;;;;;;;;;;;;;22.77;66.13;98670.09;4938940;28;19967;-64
2021/07/24 00:58:49;;;;;;;;;;;;;;;22.79;68.99;98662.91;4934952;28;19923;-66
2021/07/24 01:01:15;;;;;;;;;;;;;;;22.73;67.46;98663.44;4933373;28;19923;-63
2021/07/24 01:03:40;;;;;;;;;;;;;;;22.74;67.58;98650.19;4946630;28;19960;-65
2021/07/24 01:06:05;;;;;;;;;;;;;;;22.78;67.46;98648.13;4942747;28;19966;-66
2021/07/24 01:08:31;;;;;;;;;;;;;;;22.60;65.88;98649.72;4948135;28;19946;-64
2021/07/24 01:10:57;;;;;;;;;;;;;;;22.47;62.42;98653.44;4951271;28;19915;-66
2021/07/24 01:13:22;;;;;;;;;;;;;;;22.51;67.70;98649.59;4934449;28;19914;-64
2021/07/24 01:15:48;;;;;;;;;;;;;;;22.49;69.32;98651.50;4933316;28;19915;-64
2021/07/24 01:18:14;;;;;;;;;;;;;;;22.49;69.00;98648.88;4944745;28;20380;-64
2021/07/24 01:20:40;;;;;;;;;;;;;;;22.53;69.55;98642.41;4937909;28;20065;-65
2021/07/24 01:23:06;;;;;;;;;;;;;;;22.60;68.02;98641.84;4949214;28;20008;-65
2021/07/24 01:25:31;;;;;;;;;;;;;;;22.48;67.87;98634.09;4949743;28;20053;-63
2021/07/24 01:27:56;;;;;;;;;;;;;;;22.29;65.50;98629.63;4949358;29;19961;-63
2021/07/24 01:30:22;;;;;;;;;;;;;;;22.10;70.41;98629.50;4948418;28;19914;-65
2021/07/24 01:32:47;;;;;;;;;;;;;;;22.11;71.80;98632.00;4947728;28;19979;-64
2021/07/24 01:35:13;;;;;;;;;;;;;;;22.25;70.23;98627.41;4944259;28;19925;-64
2021/07/24 01:37:38;;;;;;;;;;;;;;;22.26;68.69;98623.78;4951954;28;20628;-63
2021/07/24 01:40:04;;;;;;;;;;;;;;;22.01;70.30;98618.03;4946096;28;20070;-65
2021/07/24 01:42:30;;;;;;;;;;;;;;;22.01;71.21;98614.53;4948037;28;20435;-63
2021/07/24 01:44:55;;;;;;;;;;;;;;;21.51;74.40;98628.34;4934262;28;20002;-64
2021/07/24 01:47:21;;;;;;;;;;;;;;;21.26;73.69;98629.53;4938374;28;19923;-64
2021/07/24 01:52:49;;;;;;;;;;;;;;;21.80;74.95;98627.69;4945661;28;19977;-64
2021/07/24 01:55:21;;;;;;;;;;;;;;;21.95;75.34;98610.66;4945842;28;19930;-63
2021/07/24 01:57:47;;;;;;;;;;;;;;;22.04;74.94;98604.63;4957281;28;19934;-63
2021/07/24 02:00:13;;;;;;;;;;;;;;;21.58;65.50;98608.53;4944376;28;19952;-62
2021/07/24 02:02:39;;;;;;;;;;;;;;;21.70;77.26;98607.50;4956096;28;19991;-63
2021/07/24 02:05:05;;;;;;;;;;;;;;;20.63;87.48;98608.41;4943140;29;19984;-64
2021/07/24 02:07:32;;;;;;;;;;;;;;;21.45;80.96;98605.28;4956602;28;19922;-63
2021/07/24 02:12:25;;;;;;;;;;;;;;;21.22;72.96;98617.63;4962466;28;19927;-64
2021/07/24 02:14:50;;;;;;;;;;;;;;;21.23;77.75;98617.50;4963303;28;20750;-64
2021/07/24 02:17:16;;;;;;;;;;;;;;;21.47;72.18;98616.47;4967934;28;19918;-64
2021/07/24 02:19:41;;;;;;;;;;;;;;;21.45;75.35;98613.13;4965914;28;19921;-64
2021/07/24 02:22:06;;;;;;;;;;;;;;;21.31;74.42;98617.69;4968908;28;19997;-64
2021/07/24 02:24:32;;;;;;;;;;;;;;;21.11;79.51;98626.34;4966465;28;19940;-64
2021/07/24 02:26:57;;;;;;;;;;;;;;;20.50;83.07;98621.59;4968804;28;20338;-64
2021/07/24 02:29:22;;;;;;;;;;;;;;;20.82;80.57;98620.84;4968410;28;20010;-64
2021/07/24 02:31:48;;;;;;;;;;;;;;;20.33;86.12;98620.31;4968640;28;19918;-64
2021/07/24 02:34:13;;;;;;;;;;;;;;;19.46;90.85;98624.38;4965842;28;20392;-64
2021/07/24 02:36:39;;;;;;;;;;;;;;;20.50;80.83;98621.59;4968379;28;19969;-64
2021/07/24 02:39:04;;;;;;;;;;;;;;;21.21;78.70;98619.44;4966712;28;20449;-64
2021/07/24 02:41:29;;;;;;;;;;;;;;;21.44;79.33;98627.19;4967088;28;19922;-64
2021/07/24 02:43:55;;;;;;;;;;;;;;;21.26;74.64;98616.44;4964499;28;19915;-64
2021/07/24 02:46:20;;;;;;;;;;;;;;;21.40;76.97;98624.00;4971060;28;19918;-64
2021/07/24 02:48:46;;;;;;;;;;;;;;;21.06;76.99;98623.28;4969058;28;20012;-64
2021/07/24 02:51:12;;;;;;;;;;;;;;;20.60;80.16;98616.53;4970335;28;20008;-64
2021/07/24 02:53:37;;;;;;;;;;;;;;;21.01;78.54;98618.44;4969145;28;20069;-64
2021/07/24 02:56:03;;;;;;;;;;;;;;;20.02;82.28;98614.84;4970959;28;20473;-64
2021/07/24 02:58:28;;;;;;;;;;;;;;;20.08;82.93;98616.16;4966712;28;20005;-64
2021/07/24 03:00:53;;;;;;;;;;;;;;;20.61;80.89;98607.72;4959234;28;19914;-64
2021/07/24 03:03:19;;;;;;;;;;;;;;;20.75;81.88;98604.81;4966622;28;20419;-64
2021/07/24 03:05:44;;;;;;;;;;;;;;;21.02;77.03;98596.50;4968831;28;19921;-64
2021/07/24 03:08:10;;;;;;;;;;;;;;;21.10;77.55;98594.13;4951793;28;19918;-64
2021/07/24 03:10:35;;;;;;;;;;;;;;;21.06;73.44;98590.06;4969744;28;20396;-64
2021/07/24 03:13:00;;;;;;;;;;;;;;;21.01;76.38;98578.34;4965855;28;19915;-64
2021/07/24 03:15:26;;;;;;;;;;;;;;;19.74;84.20;98576.13;4968783;28;19945;-64
2021/07/24 03:17:51;;;;;;;;;;;;;;;20.09;80.60;98572.56;4968967;28;20387;-64
2021/07/24 03:20:17;;;;;;;;;;;;;;;20.82;76.98;98573.75;4967937;28;20326;-64
2021/07/24 03:22:42;;;;;;;;;;;;;;;20.47;78.26;98565.13;4964157;28;19926;-64
2021/07/24 03:25:08;;;;;;;;;;;;;;;20.23;80.67;98559.22;4967557;28;19914;-64
2021/07/24 03:27:33;;;;;;;;;;;;;;;20.46;81.29;98558.25;4961449;28;20016;-64
2021/07/24 03:29:58;;;;;;;;;;;;;;;20.39;82.07;98557.09;4966895;28;19914;-64
2021/07/24 03:32:24;;;;;;;;;;;;;;;19.85;80.53;98553.44;4961631;28;20614;-64
2021/07/24 03:34:49;;;;;;;;;;;;;;;20.37;81.14;98553.75;4965862;28;19914;-64
2021/07/24 03:37:14;;;;;;;;;;;;;;;19.93;84.43;98555.44;4964973;28;19922;-64
2021/07/24 03:39:40;;;;;;;;;;;;;;;19.82;84.28;98558.09;4969235;28;19918;-64
2021/07/24 03:42:05;;;;;;;;;;;;;;;20.42;84.69;98546.38;4963365;28;20520;-64
2021/07/24 03:44:31;;;;;;;;;;;;;;;20.29;81.51;98544.84;4965767;28;19961;-64
2021/07/24 03:46:56;;;;;;;;;;;;;;;20.29;84.42;98543.06;4967948;28;19914;-64
2021/07/24 03:49:21;;;;;;;;;;;;;;;20.80;80.29;98539.88;4960206;28;19921;-64
2021/07/24 03:51:47;;;;;;;;;;;;;;;19.89;89.25;98543.59;4965356;28;19968;-64
2021/07/24 03:54:12;;;;;;;;;;;;;;;19.41;85.58;98538.53;4968132;28;19914;-64
2021/07/24 03:56:37;;;;;;;;;;;;;;;19.54;89.95;98536.63;4968147;28;20020;-64
2021/07/24 03:59:03;;;;;;;;;;;;;;;20.43;83.74;98542.78;4972955;28;20289;-64
2021/07/24 04:01:29;;;;;;;;;;;;;;;20.73;77.69;98538.69;4972584;28;19918;-64
2021/07/24 04:03:55;;;;;;;;;;;;;;;20.37;81.00;98543.28;4967432;28;20013;-64
2021/07/24 04:06:21;;;;;;;;;;;;;;;20.25;85.01;98544.25;4966179;28;20004;-64
2021/07/24 04:08:47;;;;;;;;;;;;;;;19.58;91.59;98545.91;4998331;28;19957;-64
2021/07/24 04:11:13;;;;;;;;;;;;;;;19.53;90.03;98553.28;4969332;28;20469;-64
2021/07/24 04:13:38;;;;;;;;;;;;;;;19.77;94.84;98544.53;4965822;28;19966;-64
2021/07/24 04:16:04;;;;;;;;;;;;;;;20.58;80.93;98553.84;4966978;28;19914;-64
2021/07/24 04:18:32;;;;;;;;;;;;;;;20.63;84.75;98561.31;4965240;28;20016;-64
2021/07/24 04:20:58;;;;;;;;;;;;;;;20.08;92.02;98571.72;4963134;28;19949;-64
2021/07/24 04:23:24;;;;;;;;;;;;;;;20.21;87.25;98571.63;4964689;28;20320;-64
2021/07/24 04:25:49;;;;;;;;;;;;;;;20.99;84.40;98573.22;4964293;28;20001;-64
2021/07/24 04:28:15;;;;;;;;;;;;;;;20.59;88.01;98571.19;4965738;28;20013;-64
2021/07/24 04:30:40;;;;;;;;;;;;;;;21.08;84.50;98566.41;4965454;28;19925;-64
2021/07/24 04:33:05;;;;;;;;;;;;;;;21.35;84.46;98559.81;4963015;28;19914;-64
2021/07/24 04:35:31;;;;;;;;;;;;;;;21.36;82.49;98551.00;4961324;28;19914;-64
2021/07/24 04:37:56;;;;;;;;;;;;;;;21.42;78.64;98550.53;4965605;28;20007;-64
2021/07/24 04:40:22;;;;;;;;;;;;;;;20.98;89.52;98549.78;4965267;28;21880;-64
2021/07/24 04:42:47;;;;;;;;;;;;;;;20.82;89.81;98537.09;4967954;28;20516;-64
2021/07/24 04:45:12;;;;;;;;;;;;;;;21.08;88.44;98527.13;4961582;28;19914;-64
2021/07/24 04:47:38;;;;;;;;;;;;;;;21.24;86.26;98529.28;4962070;28;20494;-64
2021/07/24 04:50:03;;;;;;;;;;;;;;;21.54;85.38;98519.84;4964877;28;19960;-64
2021/07/24 04:52:29;;;;;;;;;;;;;;;21.33;84.78;98514.59;4985472;28;20351;-64
2021/07/24 04:54:55;;;;;;;;;;;;;;;21.61;82.14;98518.34;4961535;28;19914;-64
2021/07/24 04:57:20;;;;;;;;;;;;;;;20.98;84.11;98521.81;4966728;28;20371;-64
2021/07/24 04:59:48;;;;;;;;;;;;;;;21.63;84.39;98519.06;4967923;28;19921;-64
2021/07/24 05:02:14;;;;;;;;;;;;;;;21.59;82.21;98518.47;4982013;28;20021;-64
2021/07/24 05:04:39;;;;;;;;;;;;;;;21.80;81.97;98515.81;4974419;28;19981;-64
2021/07/24 05:07:05;;;;;;;;;;;;;;;21.67;85.14;98523.91;4970216;28;20008;-64
2021/07/24 05:09:30;;;;;;;;;;;;;;;22.02;80.72;98512.16;4969775;28;19970;-64
2021/07/24 05:11:56;;;;;;;;;;;;;;;22.28;80.80;98511.69;5001377;28;19929;-64
2021/07/24 05:14:21;;;;;;;;;;;;;;;22.27;77.09;98515.28;4975476;28;19914;-64
2021/07/24 05:16:46;;;;;;;;;;;;;;;22.29;70.08;98518.63;4963907;28;19918;-64
2021/07/24 05:19:12;;;;;;;;;;;;;;;22.62;81.91;98506.06;4965353;28;19921;-64
2021/07/24 05:21:37;;;;;;;;;;;;;;;21.73;77.87;98517.28;4969911;28;19914;-64
2021/07/24 05:24:02;;;;;;;;;;;;;;;22.39;79.79;98501.09;4968030;28;19914;-64
2021/07/24 05:26:28;;;;;;;;;;;;;;;21.54;90.06;98502.31;4969196;28;19922;-64
2021/07/24 05:28:53;;;;;;;;;;;;;;;21.70;90.83;98496.59;4967472;28;19921;-64
2021/07/24 05:31:19;;;;;;;;;;;;;;;22.13;88.59;98490.25;4966189;28;20269;-64
2021/07/24 05:33:44;;;;;;;;;;;;;;;22.58;86.59;98500.28;4969151;28;19914;-64
2021/07/24 05:36:10;;;;;;;;;;;;;;;22.85;87.74;98494.31;4965895;28;19918;-64
2021/07/24 05:38:36;;;;;;;;;;;;;;;22.97;79.32;98485.34;4979757;28;20387;-64
2021/07/24 05:41:01;;;;;;;;;;;;;;;22.96;80.70;98488.09;4967367;28;19925;-64
2021/07/24 05:43:27;;;;;;;;;;;;;;;22.23;84.28;98480.63;4968364;28;19914;-64
2021/07/24 05:45:52;;;;;;;;;;;;;;;22.86;79.13;98485.50;4964702;28;19915;-64
2021/07/24 05:48:17;;;;;;;;;;;;;;;23.37;79.25;98472.97;4965388;28;19921;-64
2021/07/24 05:50:43;;;;;;;;;;;;;;;23.59;72.19;98477.03;4970160;28;19916;-64
2021/07/24 05:53:08;;;;;;;;;;;;;;;23.86;77.04;98467.56;4966226;28;19915;-64
2021/07/24 05:55:34;;;;;;;;;;;;;;;23.95;76.23;98471.94;4984859;28;19915;-63
2021/07/24 05:57:59;;;;;;;;;;;;;;;23.77;79.58;98453.47;4961888;28;19922;-64
2021/07/24 06:00:24;;;;;;;;;;;;;;;23.49;84.74;98460.47;4968599;28;20001;-64
2021/07/24 06:02:50;;;;;;;;;;;;;;;23.74;83.38;98459.84;4968926;28;19960;-64
2021/07/24 06:05:15;;;;;;;;;;;;;;;23.97;83.56;98459.44;4967603;28;20538;-64
2021/07/24 06:07:40;;;;;;;;;;;;;;;23.64;84.08;98458.22;4969510;28;20547;-64
2021/07/24 06:10:06;;;;;;;;;;;;;;;23.27;86.11;98457.25;4966797;28;20326;-64
2021/07/24 06:12:31;;;;;;;;;;;;;;;22.63;94.11;98458.72;4967959;28;20012;-64
2021/07/24 06:14:57;;;;;;;;;;;;;;;23.32;89.34;98455.00;4969266;28;20009;-64
2021/07/24 06:17:22;;;;;;;;;;;;;;;23.59;86.80;98453.38;4970400;28;19926;-64
2021/07/24 06:19:48;;;;;;;;;;;;;;;23.05;94.21;98442.63;4969185;28;19921;-63
2021/07/24 06:22:13;;;;;;;;;;;;;;;22.52;98.43;98446.53;4969217;28;19921;-64
2021/07/24 06:24:38;;;;;;;;;;;;;;;22.98;94.97;98447.59;4969017;28;19921;-64
2021/07/24 06:27:04;;;;;;;;;;;;;;;23.03;96.23;98446.38;4967015;28;20004;-63
2021/07/24 06:29:29;;;;;;;;;;;;;;;24.27;85.64;98444.28;4960748;28;20545;-64
2021/07/24 06:31:54;;;;;;;;;;;;;;;23.33;92.56;98434.81;4970527;28;19918;-64
2021/07/24 06:34:20;;;;;;;;;;;;;;;24.02;87.51;98430.91;4964108;28;20302;-64
2021/07/24 06:36:45;;;;;;;;;;;;;;;25.05;80.63;98434.75;4965425;28;19918;-64
2021/07/24 06:39:10;;;;;;;;;;;;;;;24.57;82.98;98430.78;4968513;28;20013;-64
2021/07/24 06:41:39;;;;;;;;;;;;;;;24.84;88.27;98431.66;4966409;28;19960;-64
2021/07/24 06:44:05;;;;;;;;;;;;;;;24.98;87.01;98433.72;4962320;28;19922;-64
2021/07/24 06:46:30;;;;;;;;;;;;;;;25.15;86.23;98434.63;4964620;28;20414;-64
2021/07/24 06:48:55;;;;;;;;;;;;;;;23.88;94.00;98439.28;4965631;28;19922;-64
2021/07/24 06:51:21;;;;;;;;;;;;;;;24.44;90.18;98446.09;4969744;28;19918;-64
2021/07/24 06:53:46;;;;;;;;;;;;;;;24.21;90.96;98436.00;4965518;28;20428;-64
2021/07/24 06:56:12;;;;;;;;;;;;;;;24.26;89.90;98437.38;4969630;28;20009;-64
2021/07/24 06:58:37;;;;;;;;;;;;;;;24.64;87.66;98438.91;4967060;28;19965;-64
2021/07/24 07:01:07;;;;;;;;;;;;;;;25.42;85.05;98444.19;4969478;28;19914;-64
2021/07/24 07:03:33;;;;;;;;;;;;;;;25.72;84.32;98442.03;4966652;28;19977;-64
2021/07/24 07:05:58;;;;;;;;;;;;;;;25.63;83.33;98435.88;4968249;28;19922;-64
2021/07/24 07:08:24;;;;;;;;;;;;;;;24.91;94.56;98439.78;4967152;28;19919;-64
2021/07/24 07:10:49;;;;;;;;;;;;;;;25.46;93.46;98440.28;4959616;28;19922;-64
2021/07/24 07:13:15;;;;;;;;;;;;;;;25.90;84.51;98435.84;4989935;28;19914;-64
2021/07/24 07:15:40;;;;;;;;;;;;;;;24.47;93.77;98445.81;4970122;28;19925;-64
2021/07/24 07:18:06;;;;;;;;;;;;;;;25.72;89.07;98441.19;4964398;28;19919;-64
2021/07/24 07:20:31;;;;;;;;;;;;;;;25.76;89.98;98442.53;4968379;28;20494;-64
2021/07/24 07:22:56;;;;;;;;;;;;;;;25.69;89.63;98437.06;4946858;28;19914;-64
2021/07/24 07:25:22;;;;;;;;;;;;;;;25.88;84.52;98439.47;4961715;28;19914;-64
2021/07/24 07:27:47;;;;;;;;;;;;;;;25.43;88.89;98443.22;4959031;28;20386;-64
2021/07/24 07:30:13;;;;;;;;;;;;;;;25.62;88.80;98441.34;4966270;28;19921;-64
2021/07/24 07:32:38;;;;;;;;;;;;;;;25.79;86.13;98437.75;4959173;28;19924;-64
2021/07/24 07:35:04;;;;;;;;;;;;;;;26.00;87.34;98433.88;4960580;28;19918;-63
2021/07/24 07:37:30;;;;;;;;;;;;;;;26.06;83.78;98433.25;4958118;28;19985;-64
2021/07/24 07:39:55;;;;;;;;;;;;;;;26.06;84.25;98427.97;4967839;28;20328;-64
2021/07/24 07:42:20;;;;;;;;;;;;;;;26.16;81.72;98418.09;4959293;28;20072;-64
2021/07/24 07:44:46;;;;;;;;;;;;;;;26.38;83.61;98413.97;4960334;28;19929;-64
2021/07/24 07:47:11;;;;;;;;;;;;;;;26.79;82.73;98423.75;4965865;28;19914;-64
2021/07/24 07:49:37;;;;;;;;;;;;;;;27.01;80.34;98412.50;4953891;28;19969;-64
2021/07/24 07:52:03;;;;;;;;;;;;;;;27.24;80.33;98409.16;4962689;28;19914;-63
2021/07/24 07:54:30;;;;;;;;;;;;;;;28.55;78.05;98409.28;4967723;28;19918;-63
2021/07/24 07:56:59;;;;;;;;;;;;;;;28.27;77.74;98408.97;4966402;28;19927;-64
2021/07/24 07:59:24;;;;;;;;;;;;;;;27.53;75.90;98401.44;4969131;28;19921;-63
2021/07/24 08:01:50;;;;;;;;;;;;;;;26.66;78.38;98396.03;4954134;28;19945;-64
2021/07/24 08:04:17;;;;;;;;;;;;;;;27.16;79.90;98393.28;4951617;28;20224;-63
2021/07/24 08:06:42;;;;;;;;;;;;;;;26.84;77.71;98382.63;4954094;28;19954;-63
2021/07/24 08:09:08;;;;;;;;;;;;;;;27.38;72.02;98375.91;4951400;28;20299;-63
2021/07/24 08:11:33;;;;;;;;;;;;;;;28.04;74.64;98368.44;4953199;28;20325;-63
2021/07/24 08:13:59;;;;;;;;;;;;;;;28.01;74.59;98366.13;4966929;28;19918;-64
2021/07/24 08:16:24;;;;;;;;;;;;;;;27.98;77.82;98366.50;4968299;28;20030;-64
2021/07/24 08:18:49;;;;;;;;;;;;;;;28.00;69.76;98359.22;4966508;28;19918;-64
2021/07/24 08:21:15;;;;;;;;;;;;;;;27.36;73.85;98352.25;4960460;28;20009;-64
2021/07/24 08:23:40;;;;;;;;;;;;;;;28.52;62.82;98339.94;4967094;28;19940;-64
2021/07/24 08:26:06;;;;;;;;;;;;;;;29.10;60.98;98335.72;4960458;28;19980;-64
2021/07/24 08:28:31;;;;;;;;;;;;;;;28.36;57.65;98331.09;4964532;28;19914;-64
2021/07/24 08:30:57;;;;;;;;;;;;;;;29.30;60.03;98332.47;4990426;28;19914;-64
2021/07/24 08:33:22;;;;;;;;;;;;;;;28.89;54.65;98322.34;4965359;28;20318;-64
2021/07/24 08:35:47;;;;;;;;;;;;;;;29.07;53.87;98327.28;4958510;28;20020;-64
2021/07/24 08:38:13;;;;;;;;;;;;;;;29.55;50.64;98323.19;4959571;28;20288;-64
2021/07/24 08:40:39;;;;;;;;;;;;;;;29.27;54.28;98314.31;4962901;28;19921;-64
2021/07/24 08:43:04;;;;;;;;;;;;;;;29.21;49.12;98313.19;4967098;28;19914;-64
2021/07/24 08:45:30;;;;;;;;;;;;;;;29.40;51.38;98311.81;4963617;28;19918;-64
2021/07/24 08:47:55;;;;;;;;;;;;;;;29.26;54.89;98310.81;4963086;28;20391;-64
2021/07/24 08:50:20;;;;;;;;;;;;;;;29.21;50.88;98310.53;4977559;28;19970;-63
2021/07/24 08:52:46;;;;;;;;;;;;;;;28.79;47.41;98312.03;4960645;28;19918;-64
2021/07/24 08:55:12;;;;;;;;;;;;;;;29.44;48.54;98321.00;4947912;28;20004;-64
2021/07/24 08:57:39;;;;;;;;;;;;;;;28.76;46.85;98301.75;4961660;28;19922;-64
2021/07/24 09:00:14;;;;;;;;;;;;;;;29.40;48.85;98306.50;4962726;28;19922;-64
2021/07/24 09:02:41;;;;;;;;;;;;;;;30.18;45.42;98296.88;4967039;28;19921;-64
2021/07/24 09:05:07;;;;;;;;;;;;;;;30.05;45.55;98299.41;4965024;28;20013;-64
2021/07/24 09:07:34;;;;;;;;;;;;;;;29.76;47.82;98297.72;4962224;28;19914;-64
2021/07/24 09:09:59;;;;;;;;;;;;;;;29.29;45.09;98297.19;4964384;28;19914;-64
2021/07/24 09:12:25;;;;;;;;;;;;;;;29.96;47.13;98296.06;4955716;28;20288;-63
2021/07/24 09:14:51;;;;;;;;;;;;;;;29.91;44.12;98295.00;4960862;28;19926;-64
2021/07/24 09:17:18;;;;;;;;;;;;;;;30.41;45.01;98288.69;4980824;28;19925;-64
2021/07/24 09:19:43;;;;;;;;;;;;;;;30.18;42.32;98288.91;4958633;28;19949;-64
2021/07/24 09:22:25;;;;;;;;;;;;;;;30.60;43.13;98294.31;4959311;28;20391;-64
2021/07/24 09:25:07;;;;;;;;;;;;;;;30.79;42.81;98283.00;4960493;28;20028;-64
2021/07/24 09:27:32;;;;;;;;;;;;;;;31.62;41.33;98287.44;4955579;28;20545;-64
2021/07/24 09:29:58;;;;;;;;;;;;;;;30.44;40.28;98275.00;4960970;28;19914;-64
2021/07/24 09:32:23;;;;;;;;;;;;;;;31.45;40.61;98271.00;4962025;28;19918;-63
2021/07/24 09:34:48;;;;;;;;;;;;;;;31.81;39.81;98272.50;4967545;28;20025;-63
2021/07/24 09:37:30;;;;;;;;;;;;;;;31.96;41.13;98275.84;4966164;28;20012;-64
2021/07/24 09:39:56;;;;;;;;;;;;;;;31.23;42.85;98273.00;4958204;28;19922;-64
2021/07/24 09:42:21;;;;;;;;;;;;;;;32.22;41.15;98274.19;4967824;28;20351;-64
2021/07/24 09:44:47;;;;;;;;;;;;;;;31.45;39.63;98273.69;4963465;28;19919;-64
2021/07/24 09:47:26;;;;;;;;;;;;;;;32.32;40.54;98277.28;4961980;28;19918;-64
2021/07/24 09:49:52;;;;;;;;;;;;;;;31.32;39.57;98271.78;4961594;28;19922;-64
2021/07/24 09:52:17;;;;;;;;;;;;;;;31.41;40.28;98275.13;4966176;28;19914;-64
2021/07/24 09:54:42;;;;;;;;;;;;;;;31.93;37.59;98273.53;4968111;28;19914;-63
2021/07/24 09:57:08;;;;;;;;;;;;;;;31.73;39.88;98267.41;4989080;28;20555;-63
2021/07/24 09:59:34;;;;;;;;;;;;;;;33.20;38.87;98273.38;4968189;28;19961;-64
2021/07/24 10:02:00;;;;;;;;;;;;;;;32.11;37.04;98274.81;4971506;28;19918;-64
2021/07/24 10:04:35;;;;;;;;;;;;;;;33.52;37.82;98271.53;4962795;28;19921;-64
2021/07/24 10:07:07;;;;;;;;;;;;;;;33.44;38.42;98271.81;4990458;28;19972;-64
2021/07/24 10:09:33;;;;;;;;;;;;;;;31.94;43.36;98269.06;4951532;28;19915;-64
2021/07/24 10:12:02;;;;;;;;;;;;;;;33.47;37.20;98268.72;4964274;28;20379;-64
2021/07/24 10:14:28;;;;;;;;;;;;;;;34.07;41.44;98268.31;4958914;28;19997;-64
2021/07/24 10:16:55;;;;;;;;;;;;;;;32.64;37.10;98269.44;4978511;28;20041;-63
2021/07/24 10:19:21;;;;;;;;;;;;;;;31.98;39.29;98273.78;4964323;28;19925;-64
2021/07/24 10:21:46;;;;;;;;;;;;;;;32.49;40.60;98267.78;4992094;28;20004;-64
2021/07/24 10:24:12;;;;;;;;;;;;;;;32.67;39.74;98269.03;4970092;28;20464;-64
2021/07/24 10:26:37;;;;;;;;;;;;;;;33.44;36.88;98271.81;4971156;28;20388;-64
2021/07/24 10:29:06;;;;;;;;;;;;;;;33.70;36.51;98274.34;4964114;28;19914;-64
2021/07/24 10:31:38;;;;;;;;;;;;;;;33.50;35.17;98268.28;4963434;28;19957;-64
2021/07/24 10:34:04;;;;;;;;;;;;;;;34.96;36.42;98272.38;4991815;28;19964;-64
2021/07/24 10:36:33;;;;;;;;;;;;;;;34.16;35.80;98257.13;4968850;28;20383;-64
2021/07/24 10:39:00;;;;;;;;;;;;;;;34.40;36.49;98257.34;4971083;28;20009;-64
2021/07/24 10:41:25;;;;;;;;;;;;;;;34.46;32.82;98256.44;4969333;28;19914;-64
2021/07/24 10:44:06;;;;;;;;;;;;;;;35.13;37.15;98258.44;4990347;28;19920;-64
2021/07/24 10:46:40;;;;;;;;;;;;;;;34.12;35.06;98258.63;4957816;28;19961;-64
2021/07/24 10:49:06;;;;;;;;;;;;;;;35.47;35.90;98262.28;4961868;28;20662;-64
2021/07/24 10:51:51;;;;;;;;;;;;;;;35.57;34.00;98256.34;4965395;28;19919;-64
2021/07/24 10:54:17;;;;;;;;;;;;;;;35.05;35.92;98264.84;4967301;28;20001;-64
2021/07/24 10:56:42;;;;;;;;;;;;;;;35.37;33.39;98273.53;4954875;28;20005;-64
2021/07/24 10:59:13;;;;;;;;;;;;;;;35.39;32.56;98266.06;4970008;28;19914;-64
2021/07/24 11:01:45;;;;;;;;;;;;;;;35.16;35.41;98261.44;4963627;28;19919;-64
2021/07/24 11:04:29;;;;;;;;;;;;;;;34.26;35.02;98262.00;4963049;28;19960;-64
2021/07/24 11:07:08;;;;;;;;;;;;;;;34.08;38.01;98262.75;4992206;28;19918;-64
2021/07/24 11:09:34;;;;;;;;;;;;;;;32.57;38.42;98268.63;4968314;28;19914;-63
2021/07/24 11:12:02;;;;;;;;;;;;;;;33.64;37.43;98271.72;4970040;28;19928;-64
2021/07/24 11:14:30;;;;;;;;;;;;;;;33.54;37.27;98280.16;4956087;28;19919;-64
2021/07/24 11:17:22;;;;;;;;;;;;;;;33.43;35.99;98273.66;4987643;28;19922;-64
2021/07/24 11:19:47;;;;;;;;;;;;;;;34.09;37.99;98283.06;4956506;28;19915;-64
2021/07/24 11:22:17;;;;;;;;;;;;;;;35.24;36.22;98292.47;4968648;28;20414;-64
2021/07/24 11:24:52;;;;;;;;;;;;;;;34.29;40.11;98292.81;4962216;28;19966;-64
2021/07/24 11:27:26;;;;;;;;;;;;;;;34.65;36.12;98294.75;4955220;28;19970;-64
2021/07/24 11:29:55;;;;;;;;;;;;;;;34.87;35.88;98289.75;4959046;28;19949;-64
2021/07/24 11:32:24;;;;;;;;;;;;;;;34.99;34.23;98288.00;4962674;28;19923;-64
2021/07/24 11:34:54;;;;;;;;;;;;;;;35.16;35.90;98282.06;4981875;28;19914;-64
2021/07/24 11:37:32;;;;;;;;;;;;;;;35.24;35.21;98273.72;4970035;28;19918;-64
2021/07/24 11:39:57;;;;;;;;;;;;;;;35.93;35.71;98276.03;4984827;28;19914;-64
2021/07/24 11:42:23;;;;;;;;;;;;;;;36.22;34.90;98283.22;4975929;28;19924;-64
2021/07/24 11:44:48;;;;;;;;;;;;;;;34.13;34.52;98278.97;4955711;28;19948;-64
2021/07/24 11:47:15;;;;;;;;;;;;;;;32.72;37.35;98279.88;4979740;28;19918;-64
2021/07/24 11:49:43;;;;;;;;;;;;;;;32.74;39.09;98288.50;4963531;28;19922;-64
2021/07/24 11:52:09;;;;;;;;;;;;;;;33.16;37.91;98277.50;4955790;28;20418;-63
2021/07/24 11:54:35;;;;;;;;;;;;;;;33.36;37.11;98280.06;4959400;28;19997;-64
2021/07/24 11:57:01;;;;;;;;;;;;;;;33.98;36.12;98277.63;4964320;28;19949;-64
2021/07/24 11:59:27;;;;;;;;;;;;;;;34.16;34.79;98272.38;4966211;28;20338;-64
2021/07/24 12:01:52;;;;;;;;;;;;;;;34.54;35.39;98288.25;4965353;28;19918;-64
2021/07/24 12:04:19;;;;;;;;;;;;;;;32.56;37.70;98277.66;4967130;28;20525;-63
2021/07/24 12:06:49;;;;;;;;;;;;;;;34.08;38.13;98281.44;4959230;28;19915;-64
2021/07/24 12:09:16;;;;;;;;;;;;;;;34.54;37.44;98272.22;4965673;28;19921;-64
2021/07/24 12:11:45;;;;;;;;;;;;;;;34.52;37.57;98278.81;4958740;28;19929;-64
2021/07/24 12:14:10;;;;;;;;;;;;;;;32.45;38.21;98282.56;4958355;28;20020;-64
2021/07/24 12:16:39;;;;;;;;;;;;;;;31.15;41.88;98287.25;4979370;28;19997;-64
2021/07/24 12:19:12;;;;;;;;;;;;;;;31.50;41.65;98295.22;4956916;28;19915;-64
2021/07/24 12:21:38;;;;;;;;;;;;;;;32.59;40.88;98287.91;4966504;28;19965;-63
2021/07/24 12:24:04;;;;;;;;;;;;;;;33.76;36.75;98280.69;4967329;28;19914;-64
2021/07/24 12:26:34;;;;;;;;;;;;;;;33.54;41.08;98280.16;4968209;28;20426;-64
2021/07/24 12:29:08;;;;;;;;;;;;;;;33.97;37.61;98281.34;4966864;28;19921;-64
2021/07/24 12:31:40;;;;;;;;;;;;;;;32.23;46.87;98278.50;4957535;28;19914;-64
2021/07/24 12:34:18;;;;;;;;;;;;;;;31.10;42.51;98281.72;4952908;28;19915;-64
2021/07/24 12:36:54;;;;;;;;;;;;;;;31.19;44.18;98272.56;4962264;28;19930;-64
2021/07/24 12:39:19;;;;;;;;;;;;;;;32.62;41.71;98268.84;4955051;28;19914;-64
2021/07/24 12:41:45;;;;;;;;;;;;;;;33.54;43.79;98275.63;4957838;28;19925;-64
2021/07/24 12:44:10;;;;;;;;;;;;;;;32.89;42.84;98274.88;4979372;28;19914;-64
2021/07/24 12:46:36;;;;;;;;;;;;;;;33.79;39.49;98276.75;4953999;28;19953;-64
2021/07/24 12:49:02;;;;;;;;;;;;;;;34.05;37.85;98281.88;4959136;28;19922;-64